sensor_id;sensor_type;location;lat;lon;timestamp;pressure;altitude;pressure_sealevel;temperature;humidity
59443;BME280;45247;47.466;19.004;2023-05-10T00:00:19;100128.88;;;10.90;100.00
59443;BME280;45247;47.466;19.004;2023-05-10T00:02:49;100127.47;;;10.84;100.00
59443;BME280;45247;47.466;19.004;2023-05-10T00:05:18;100125.72;;;10.83;100.00
59443;BME280;45247;47.466;19.004;2023-05-10T00:07:46;100117.06;;;10.81;100.00
59443;BME280;45247;47.466;19.004;2023-05-10T00:10:14;100114.38;;;10.67;100.00
59443;BME280;45247;47.466;19.004;2023-05-10T00:12:42;100120.75;;;10.63;100.00
59443;BME280;45247;47.466;19.004;2023-05-10T00:15:12;100122.88;;;10.56;100.00
59443;BME280;45247;47.466;19.004;2023-05-10T00:17:40;100121.50;;;10.49;100.00
59443;BME280;45247;47.466;19.004;2023-05-10T00:20:10;100122.00;;;10.40;100.00
59443;BME280;45247;47.466;19.004;2023-05-10T00:22:38;100128.50;;;10.34;100.00
59443;BME280;45247;47.466;19.004;2023-05-10T00:25:08;100122.69;;;10.27;100.00
59443;BME280;45247;47.466;19.004;2023-05-10T00:27:36;100121.00;;;10.26;100.00
59443;BME280;45247;47.466;19.004;2023-05-10T00:30:06;100115.00;;;10.23;100.00
59443;BME280;45247;47.466;19.004;2023-05-10T00:32:35;100110.22;;;10.14;100.00
59443;BME280;45247;47.466;19.004;2023-05-10T00:35:04;100114.31;;;10.03;100.00
59443;BME280;45247;47.466;19.004;2023-05-10T00:37:33;100113.25;;;9.90;100.00
59443;BME280;45247;47.466;19.004;2023-05-10T00:40:01;100108.16;;;9.87;100.00
59443;BME280;45247;47.466;19.004;2023-05-10T00:42:29;100115.44;;;9.82;100.00
59443;BME280;45247;47.466;19.004;2023-05-10T00:44:57;100109.88;;;9.71;100.00
59443;BME280;45247;47.466;19.004;2023-05-10T00:47:25;100112.84;;;9.65;100.00
59443;BME280;45247;47.466;19.004;2023-05-10T00:49:55;100109.63;;;9.60;100.00
59443;BME280;45247;47.466;19.004;2023-05-10T00:52:26;100115.19;;;9.53;100.00
59443;BME280;45247;47.466;19.004;2023-05-10T00:54:55;100113.50;;;9.52;100.00
59443;BME280;45247;47.466;19.004;2023-05-10T00:57:24;100105.97;;;9.45;100.00
59443;BME280;45247;47.466;19.004;2023-05-10T00:59:52;100100.69;;;9.45;100.00
59443;BME280;45247;47.466;19.004;2023-05-10T01:02:20;100110.41;;;9.44;100.00
59443;BME280;45247;47.466;19.004;2023-05-10T01:04:49;100107.16;;;9.39;100.00
59443;BME280;45247;47.466;19.004;2023-05-10T01:07:18;100107.22;;;9.38;100.00
59443;BME280;45247;47.466;19.004;2023-05-10T01:09:47;100104.75;;;9.35;100.00
59443;BME280;45247;47.466;19.004;2023-05-10T01:12:15;100098.47;;;9.37;100.00
59443;BME280;45247;47.466;19.004;2023-05-10T01:14:43;100102.03;;;9.36;100.00
59443;BME280;45247;47.466;19.004;2023-05-10T01:17:12;100091.81;;;9.30;100.00
59443;BME280;45247;47.466;19.004;2023-05-10T01:19:40;100099.09;;;9.42;100.00
59443;BME280;45247;47.466;19.004;2023-05-10T01:22:25;100097.38;;;9.41;100.00
59443;BME280;45247;47.466;19.004;2023-05-10T01:25:19;100103.44;;;9.43;100.00
59443;BME280;45247;47.466;19.004;2023-05-10T01:31:09;100101.06;;;9.54;100.00
59443;BME280;45247;47.466;19.004;2023-05-10T01:33:56;100097.19;;;9.62;100.00
59443;BME280;45247;47.466;19.004;2023-05-10T01:36:36;100093.47;;;9.66;100.00
59443;BME280;45247;47.466;19.004;2023-05-10T01:39:16;100094.25;;;9.68;100.00
59443;BME280;45247;47.466;19.004;2023-05-10T01:41:51;100103.84;;;9.69;100.00
59443;BME280;45247;47.466;19.004;2023-05-10T01:44:29;100099.59;;;9.66;100.00
59443;BME280;45247;47.466;19.004;2023-05-10T01:47:04;100093.63;;;9.63;100.00
59443;BME280;45247;47.466;19.004;2023-05-10T01:49:41;100088.53;;;9.60;100.00
59443;BME280;45247;47.466;19.004;2023-05-10T01:52:12;100091.16;;;9.60;100.00
59443;BME280;45247;47.466;19.004;2023-05-10T01:54:53;100093.63;;;9.63;100.00
59443;BME280;45247;47.466;19.004;2023-05-10T01:57:36;100085.47;;;9.67;100.00
59443;BME280;45247;47.466;19.004;2023-05-10T02:00:08;100082.94;;;9.66;100.00
59443;BME280;45247;47.466;19.004;2023-05-10T02:02:40;100076.66;;;9.68;100.00
59443;BME280;45247;47.466;19.004;2023-05-10T02:05:12;100077.41;;;9.70;100.00
59443;BME280;45247;47.466;19.004;2023-05-10T02:07:42;100079.19;;;9.70;100.00
59443;BME280;45247;47.466;19.004;2023-05-10T02:10:14;100072.69;;;9.77;100.00
59443;BME280;45247;47.466;19.004;2023-05-10T02:12:46;100075.47;;;9.74;100.00
59443;BME280;45247;47.466;19.004;2023-05-10T02:15:18;100073.78;;;9.73;100.00
59443;BME280;45247;47.466;19.004;2023-05-10T02:17:48;100075.47;;;9.74;100.00
59443;BME280;45247;47.466;19.004;2023-05-10T02:20:19;100078.00;;;9.75;100.00
59443;BME280;45247;47.466;19.004;2023-05-10T02:22:49;100074.47;;;9.76;100.00
59443;BME280;45247;47.466;19.004;2023-05-10T02:25:19;100070.94;;;9.76;100.00
59443;BME280;45247;47.466;19.004;2023-05-10T02:27:50;100066.47;;;9.78;100.00
59443;BME280;45247;47.466;19.004;2023-05-10T02:30:19;100061.88;;;9.82;100.00
59443;BME280;45247;47.466;19.004;2023-05-10T02:32:49;100064.34;;;9.85;100.00
59443;BME280;45247;47.466;19.004;2023-05-10T02:35:19;100072.25;;;9.85;100.00
59443;BME280;45247;47.466;19.004;2023-05-10T02:37:47;100069.38;;;9.89;100.00
59443;BME280;45247;47.466;19.004;2023-05-10T02:40:16;100067.34;;;9.94;100.00
59443;BME280;45247;47.466;19.004;2023-05-10T02:42:47;100077.91;;;9.94;100.00
59443;BME280;45247;47.466;19.004;2023-05-10T02:45:20;100074.41;;;9.94;100.00
59443;BME280;45247;47.466;19.004;2023-05-10T02:47:49;100068.03;;;9.98;100.00
59443;BME280;45247;47.466;19.004;2023-05-10T02:50:19;100076.34;;;10.06;100.00
59443;BME280;45247;47.466;19.004;2023-05-10T02:52:50;100069.81;;;10.13;100.00
59443;BME280;45247;47.466;19.004;2023-05-10T02:55:22;100069.91;;;10.12;100.00
59443;BME280;45247;47.466;19.004;2023-05-10T02:57:57;100063.69;;;10.13;100.00
59443;BME280;45247;47.466;19.004;2023-05-10T03:00:26;100070.13;;;10.24;100.00
59443;BME280;45247;47.466;19.004;2023-05-10T03:02:54;100067.88;;;10.17;100.00
59443;BME280;45247;47.466;19.004;2023-05-10T03:05:24;100077.63;;;10.15;100.00
59443;BME280;45247;47.466;19.004;2023-05-10T03:07:53;100077.13;;;10.08;100.00
59443;BME280;45247;47.466;19.004;2023-05-10T03:10:26;100071.97;;;10.07;100.00
59443;BME280;45247;47.466;19.004;2023-05-10T03:13:05;100075.69;;;10.02;100.00
59443;BME280;45247;47.466;19.004;2023-05-10T03:15:52;100076.94;;;9.95;100.00
59443;BME280;45247;47.466;19.004;2023-05-10T03:18:29;100072.69;;;9.93;100.00
59443;BME280;45247;47.466;19.004;2023-05-10T03:21:04;100077.28;;;9.89;100.00
59443;BME280;45247;47.466;19.004;2023-05-10T03:23:41;100074.66;;;9.89;100.00
59443;BME280;45247;47.466;19.004;2023-05-10T03:26:17;100069.53;;;9.86;100.00
59443;BME280;45247;47.466;19.004;2023-05-10T03:28:47;100069.19;;;9.76;100.00
59443;BME280;45247;47.466;19.004;2023-05-10T03:31:17;100067.97;;;9.66;100.00
59443;BME280;45247;47.466;19.004;2023-05-10T03:33:46;100065.16;;;9.69;100.00
59443;BME280;45247;47.466;19.004;2023-05-10T03:36:16;100072.53;;;9.63;100.00
59443;BME280;45247;47.466;19.004;2023-05-10T03:38:44;100067.28;;;9.63;100.00
59443;BME280;45247;47.466;19.004;2023-05-10T03:41:12;100071.53;;;9.65;100.00
59443;BME280;45247;47.466;19.004;2023-05-10T03:43:41;100068.50;;;9.73;100.00
59443;BME280;45247;47.466;19.004;2023-05-10T03:46:09;100075.47;;;9.74;100.00
59443;BME280;45247;47.466;19.004;2023-05-10T03:48:37;100070.69;;;9.81;100.00
59443;BME280;45247;47.466;19.004;2023-05-10T03:51:05;100073.28;;;9.82;100.00
59443;BME280;45247;47.466;19.004;2023-05-10T03:53:34;100076.59;;;10.01;100.00
59443;BME280;45247;47.466;19.004;2023-05-10T03:56:03;100060.19;;;9.96;100.00
59443;BME280;45247;47.466;19.004;2023-05-10T03:58:31;100074.41;;;10.10;100.00
59443;BME280;45247;47.466;19.004;2023-05-10T04:00:59;100070.84;;;10.11;100.00
59443;BME280;45247;47.466;19.004;2023-05-10T04:03:27;100072.34;;;10.15;100.00
59443;BME280;45247;47.466;19.004;2023-05-10T04:05:59;100073.81;;;10.20;100.00
59443;BME280;45247;47.466;19.004;2023-05-10T04:08:28;100069.09;;;10.27;100.00
59443;BME280;45247;47.466;19.004;2023-05-10T04:11:06;100061.00;;;10.30;100.00
59443;BME280;45247;47.466;19.004;2023-05-10T04:13:35;100062.53;;;10.34;100.00
59443;BME280;45247;47.466;19.004;2023-05-10T04:16:04;100062.38;;;10.83;100.00
59443;BME280;45247;47.466;19.004;2023-05-10T04:18:32;100062.75;;;12.90;100.00
59443;BME280;45247;47.466;19.004;2023-05-10T04:21:00;100063.56;;;14.43;93.65
59443;BME280;45247;47.466;19.004;2023-05-10T04:23:29;100071.28;;;15.98;81.31
59443;BME280;45247;47.466;19.004;2023-05-10T04:26:00;100062.59;;;17.57;71.21
59443;BME280;45247;47.466;19.004;2023-05-10T04:28:30;100063.88;;;18.93;62.78
59443;BME280;45247;47.466;19.004;2023-05-10T04:31:02;100070.03;;;20.17;56.00
59443;BME280;45247;47.466;19.004;2023-05-10T04:33:31;100067.28;;;19.71;55.40
59443;BME280;45247;47.466;19.004;2023-05-10T04:35:59;100070.47;;;20.49;53.04
59443;BME280;45247;47.466;19.004;2023-05-10T04:38:28;100067.78;;;21.65;50.09
59443;BME280;45247;47.466;19.004;2023-05-10T04:41:03;100062.63;;;21.71;49.48
59443;BME280;45247;47.466;19.004;2023-05-10T04:43:33;100067.63;;;22.93;45.62
59443;BME280;45247;47.466;19.004;2023-05-10T04:46:02;100063.28;;;23.09;44.96
59443;BME280;45247;47.466;19.004;2023-05-10T04:48:30;100056.16;;;23.73;43.50
59443;BME280;45247;47.466;19.004;2023-05-10T04:50:58;100064.47;;;24.03;42.13
59443;BME280;45247;47.466;19.004;2023-05-10T04:53:26;100060.47;;;23.90;41.86
59443;BME280;45247;47.466;19.004;2023-05-10T04:55:55;100055.09;;;23.82;42.20
59443;BME280;45247;47.466;19.004;2023-05-10T04:58:23;100061.47;;;23.89;41.21
59443;BME280;45247;47.466;19.004;2023-05-10T05:00:53;100047.53;;;24.79;40.81
59443;BME280;45247;47.466;19.004;2023-05-10T05:03:21;100041.56;;;25.15;38.54
59443;BME280;45247;47.466;19.004;2023-05-10T05:05:50;100043.84;;;25.79;38.29
59443;BME280;45247;47.466;19.004;2023-05-10T05:08:18;100055.00;;;23.43;41.19
59443;BME280;45247;47.466;19.004;2023-05-10T05:10:46;100063.09;;;23.02;42.32
59443;BME280;45247;47.466;19.004;2023-05-10T05:13:16;100053.22;;;24.30;41.61
59443;BME280;45247;47.466;19.004;2023-05-10T05:15:45;100052.88;;;23.94;41.12
59443;BME280;45247;47.466;19.004;2023-05-10T05:18:15;100053.25;;;21.49;44.89
59443;BME280;45247;47.466;19.004;2023-05-10T05:20:43;100060.50;;;20.60;47.49
59443;BME280;45247;47.466;19.004;2023-05-10T05:23:11;100064.53;;;20.56;47.93
59443;BME280;45247;47.466;19.004;2023-05-10T05:25:39;100065.94;;;21.39;46.82
59443;BME280;45247;47.466;19.004;2023-05-10T05:28:07;100062.69;;;20.92;47.66
59443;BME280;45247;47.466;19.004;2023-05-10T05:30:35;100070.41;;;20.59;48.33
59443;BME280;45247;47.466;19.004;2023-05-10T05:33:03;100067.88;;;20.93;48.64
59443;BME280;45247;47.466;19.004;2023-05-10T05:35:33;100075.47;;;20.35;48.47
59443;BME280;45247;47.466;19.004;2023-05-10T05:38:01;100072.69;;;21.69;45.98
59443;BME280;45247;47.466;19.004;2023-05-10T05:40:29;100077.19;;;22.29;44.59
59443;BME280;45247;47.466;19.004;2023-05-10T05:42:57;100075.84;;;21.65;44.41
59443;BME280;45247;47.466;19.004;2023-05-10T05:45:25;100076.72;;;21.99;44.69
59443;BME280;45247;47.466;19.004;2023-05-10T05:47:53;100087.53;;;21.82;44.53
59443;BME280;45247;47.466;19.004;2023-05-10T05:50:21;100084.41;;;22.20;45.00
59443;BME280;45247;47.466;19.004;2023-05-10T05:52:51;100089.81;;;23.04;42.94
59443;BME280;45247;47.466;19.004;2023-05-10T05:55:19;100085.81;;;23.65;42.35
59443;BME280;45247;47.466;19.004;2023-05-10T05:57:48;100099.84;;;23.99;41.35
59443;BME280;45247;47.466;19.004;2023-05-10T06:00:16;100092.06;;;24.13;41.03
59443;BME280;45247;47.466;19.004;2023-05-10T06:02:47;100098.31;;;25.07;39.83
59443;BME280;45247;47.466;19.004;2023-05-10T06:05:15;100093.50;;;23.76;40.07
59443;BME280;45247;47.466;19.004;2023-05-10T06:07:44;100095.22;;;23.44;41.50
59443;BME280;45247;47.466;19.004;2023-05-10T06:10:14;100093.16;;;23.79;41.52
59443;BME280;45247;47.466;19.004;2023-05-10T06:12:42;100099.59;;;23.21;42.60
59443;BME280;45247;47.466;19.004;2023-05-10T06:15:10;100095.22;;;23.77;41.61
59443;BME280;45247;47.466;19.004;2023-05-10T06:17:40;100094.53;;;23.42;41.27
59443;BME280;45247;47.466;19.004;2023-05-10T06:20:10;100094.56;;;23.18;42.00
59443;BME280;45247;47.466;19.004;2023-05-10T06:22:39;100085.44;;;23.60;41.96
59443;BME280;45247;47.466;19.004;2023-05-10T06:25:08;100097.84;;;22.71;43.01
59443;BME280;45247;47.466;19.004;2023-05-10T06:27:38;100102.75;;;22.33;43.37
59443;BME280;45247;47.466;19.004;2023-05-10T06:30:10;100105.97;;;21.50;44.25
59443;BME280;45247;47.466;19.004;2023-05-10T06:32:40;100109.56;;;20.70;45.70
59443;BME280;45247;47.466;19.004;2023-05-10T06:35:11;100111.44;;;20.32;46.99
59443;BME280;45247;47.466;19.004;2023-05-10T06:37:39;100113.66;;;19.72;48.80
59443;BME280;45247;47.466;19.004;2023-05-10T06:40:07;100115.81;;;19.20;50.00
59443;BME280;45247;47.466;19.004;2023-05-10T06:42:36;100116.78;;;18.90;51.38
59443;BME280;45247;47.466;19.004;2023-05-10T06:45:07;100101.53;;;19.68;49.61
59443;BME280;45247;47.466;19.004;2023-05-10T06:47:36;100096.88;;;19.80;49.83
59443;BME280;45247;47.466;19.004;2023-05-10T06:50:06;100105.78;;;19.41;50.47
59443;BME280;45247;47.466;19.004;2023-05-10T06:52:34;100100.28;;;20.09;49.70
59443;BME280;45247;47.466;19.004;2023-05-10T06:55:04;100095.69;;;20.57;48.56
59443;BME280;45247;47.466;19.004;2023-05-10T06:57:32;100088.75;;;20.99;47.62
59443;BME280;45247;47.466;19.004;2023-05-10T07:00:00;100093.94;;;20.65;47.46
59443;BME280;45247;47.466;19.004;2023-05-10T07:02:32;100089.56;;;20.64;47.16
59443;BME280;45247;47.466;19.004;2023-05-10T07:05:00;100101.13;;;20.10;48.26
59443;BME280;45247;47.466;19.004;2023-05-10T07:07:40;100090.88;;;19.10;49.22
59443;BME280;45247;47.466;19.004;2023-05-10T07:10:09;100095.78;;;19.63;49.90
59443;BME280;45247;47.466;19.004;2023-05-10T07:12:37;100095.09;;;19.41;49.94
59443;BME280;45247;47.466;19.004;2023-05-10T07:15:07;100094.53;;;19.28;50.90
59443;BME280;45247;47.466;19.004;2023-05-10T07:17:37;100097.88;;;19.40;50.77
59443;BME280;45247;47.466;19.004;2023-05-10T07:20:08;100098.78;;;19.11;51.74
59443;BME280;45247;47.466;19.004;2023-05-10T07:22:37;100098.00;;;18.61;53.13
59443;BME280;45247;47.466;19.004;2023-05-10T07:25:06;100096.94;;;18.33;54.46
59443;BME280;45247;47.466;19.004;2023-05-10T07:27:34;100095.69;;;17.96;56.33
59443;BME280;45247;47.466;19.004;2023-05-10T07:30:03;100098.72;;;17.82;55.66
59443;BME280;45247;47.466;19.004;2023-05-10T07:32:31;100084.34;;;18.04;57.79
59443;BME280;45247;47.466;19.004;2023-05-10T07:35:01;100087.00;;;18.44;57.25
59443;BME280;45247;47.466;19.004;2023-05-10T07:37:30;100087.66;;;18.87;56.46
59443;BME280;45247;47.466;19.004;2023-05-10T07:39:58;100085.81;;;19.36;54.08
59443;BME280;45247;47.466;19.004;2023-05-10T07:42:26;100083.50;;;19.60;51.23
59443;BME280;45247;47.466;19.004;2023-05-10T07:44:54;100081.19;;;19.85;51.90
59443;BME280;45247;47.466;19.004;2023-05-10T07:47:22;100074.50;;;19.71;51.90
59443;BME280;45247;47.466;19.004;2023-05-10T07:49:51;100083.75;;;18.41;53.21
59443;BME280;45247;47.466;19.004;2023-05-10T07:52:20;100085.75;;;18.48;54.13
59443;BME280;45247;47.466;19.004;2023-05-10T07:54:48;100077.94;;;19.15;54.94
59443;BME280;45247;47.466;19.004;2023-05-10T07:57:17;100091.22;;;18.47;54.31
59443;BME280;45247;47.466;19.004;2023-05-10T07:59:46;100082.50;;;18.45;56.32
59443;BME280;45247;47.466;19.004;2023-05-10T08:02:14;100090.44;;;18.16;56.40
59443;BME280;45247;47.466;19.004;2023-05-10T08:04:42;100077.59;;;18.60;57.74
59443;BME280;45247;47.466;19.004;2023-05-10T08:07:10;100082.31;;;18.77;56.41
59443;BME280;45247;47.466;19.004;2023-05-10T08:09:40;100082.06;;;18.40;55.22
59443;BME280;45247;47.466;19.004;2023-05-10T08:12:08;100081.97;;;18.11;56.39
59443;BME280;45247;47.466;19.004;2023-05-10T08:14:36;100083.94;;;18.59;56.29
59443;BME280;45247;47.466;19.004;2023-05-10T08:17:04;100087.16;;;18.62;54.64
59443;BME280;45247;47.466;19.004;2023-05-10T08:19:32;100085.22;;;19.42;55.91
59443;BME280;45247;47.466;19.004;2023-05-10T08:22:00;100080.13;;;19.68;53.91
59443;BME280;45247;47.466;19.004;2023-05-10T08:24:28;100081.56;;;19.43;52.91
59443;BME280;45247;47.466;19.004;2023-05-10T08:26:58;100081.28;;;18.59;52.80
59443;BME280;45247;47.466;19.004;2023-05-10T08:29:26;100076.16;;;18.36;55.97
59443;BME280;45247;47.466;19.004;2023-05-10T08:32:01;100077.22;;;18.24;54.69
59443;BME280;45247;47.466;19.004;2023-05-10T08:34:29;100083.81;;;18.20;55.69
59443;BME280;45247;47.466;19.004;2023-05-10T08:36:57;100067.03;;;17.98;56.39
59443;BME280;45247;47.466;19.004;2023-05-10T08:39:26;100079.06;;;17.83;56.37
59443;BME280;45247;47.466;19.004;2023-05-10T08:42:01;100080.03;;;18.13;54.80
59443;BME280;45247;47.466;19.004;2023-05-10T08:44:30;100083.59;;;17.92;56.30
59443;BME280;45247;47.466;19.004;2023-05-10T08:47:04;100078.72;;;17.76;57.68
59443;BME280;45247;47.466;19.004;2023-05-10T08:49:33;100077.56;;;17.90;56.56
59443;BME280;45247;47.466;19.004;2023-05-10T08:52:03;100082.03;;;18.30;57.32
59443;BME280;45247;47.466;19.004;2023-05-10T08:54:34;100078.84;;;17.96;55.91
59443;BME280;45247;47.466;19.004;2023-05-10T08:57:04;100075.78;;;18.10;55.32
59443;BME280;45247;47.466;19.004;2023-05-10T08:59:32;100074.28;;;18.17;56.91
59443;BME280;45247;47.466;19.004;2023-05-10T09:02:01;100072.47;;;17.87;56.04
59443;BME280;45247;47.466;19.004;2023-05-10T09:04:30;100079.09;;;17.93;56.30
59443;BME280;45247;47.466;19.004;2023-05-10T09:06:59;100084.25;;;17.64;56.53
59443;BME280;45247;47.466;19.004;2023-05-10T09:09:27;100080.19;;;17.39;58.08
59443;BME280;45247;47.466;19.004;2023-05-10T09:11:56;100079.47;;;17.37;57.86
59443;BME280;45247;47.466;19.004;2023-05-10T09:14:26;100079.69;;;17.13;57.74
59443;BME280;45247;47.466;19.004;2023-05-10T09:16:55;100080.00;;;17.51;58.16
59443;BME280;45247;47.466;19.004;2023-05-10T09:19:24;100076.13;;;17.65;57.88
59443;BME280;45247;47.466;19.004;2023-05-10T09:21:52;100080.94;;;17.30;57.43
59443;BME280;45247;47.466;19.004;2023-05-10T09:24:25;100083.22;;;17.34;57.70
59443;BME280;45247;47.466;19.004;2023-05-10T09:26:53;100074.31;;;17.87;56.67
59443;BME280;45247;47.466;19.004;2023-05-10T09:29:22;100053.41;;;18.42;54.15
59443;BME280;45247;47.466;19.004;2023-05-10T09:31:51;100078.16;;;18.04;55.21
59443;BME280;45247;47.466;19.004;2023-05-10T09:34:28;100065.69;;;18.14;56.60
59443;BME280;45247;47.466;19.004;2023-05-10T09:36:58;100063.00;;;18.14;55.78
59443;BME280;45247;47.466;19.004;2023-05-10T09:39:32;100065.88;;;18.32;53.46
59443;BME280;45247;47.466;19.004;2023-05-10T09:42:02;100064.72;;;17.84;55.17
59443;BME280;45247;47.466;19.004;2023-05-10T09:44:32;100055.44;;;17.79;56.03
59443;BME280;45247;47.466;19.004;2023-05-10T09:47:02;100064.09;;;18.51;55.56
59443;BME280;45247;47.466;19.004;2023-05-10T09:49:30;100065.00;;;18.91;54.67
59443;BME280;45247;47.466;19.004;2023-05-10T09:52:01;100051.47;;;19.12;54.33
59443;BME280;45247;47.466;19.004;2023-05-10T09:54:30;100066.03;;;18.49;53.70
59443;BME280;45247;47.466;19.004;2023-05-10T09:56:59;100050.31;;;18.46;54.96
59443;BME280;45247;47.466;19.004;2023-05-10T09:59:28;100054.78;;;18.36;52.92
59443;BME280;45247;47.466;19.004;2023-05-10T10:01:58;100052.09;;;18.36;52.54
59443;BME280;45247;47.466;19.004;2023-05-10T10:04:31;100042.38;;;18.16;53.41
59443;BME280;45247;47.466;19.004;2023-05-10T10:07:01;100041.72;;;18.62;52.49
59443;BME280;45247;47.466;19.004;2023-05-10T10:09:30;100037.69;;;18.87;53.22
59443;BME280;45247;47.466;19.004;2023-05-10T10:11:59;100038.25;;;19.10;50.94
59443;BME280;45247;47.466;19.004;2023-05-10T10:14:27;100037.38;;;19.10;50.60
59443;BME280;45247;47.466;19.004;2023-05-10T10:16:56;100039.09;;;19.11;49.75
59443;BME280;45247;47.466;19.004;2023-05-10T10:19:35;100036.69;;;19.74;49.29
59443;BME280;45247;47.466;19.004;2023-05-10T10:22:04;100037.31;;;19.48;49.37
59443;BME280;45247;47.466;19.004;2023-05-10T10:24:33;100037.47;;;19.47;49.71
59443;BME280;45247;47.466;19.004;2023-05-10T10:27:11;100023.72;;;19.79;49.99
59443;BME280;45247;47.466;19.004;2023-05-10T10:29:52;100023.88;;;20.05;50.96
59443;BME280;45247;47.466;19.004;2023-05-10T10:32:30;100029.50;;;19.27;50.42
59443;BME280;45247;47.466;19.004;2023-05-10T10:35:03;100033.28;;;19.25;49.71
59443;BME280;45247;47.466;19.004;2023-05-10T10:37:43;100024.00;;;19.10;50.59
59443;BME280;45247;47.466;19.004;2023-05-10T10:40:30;100022.19;;;18.62;50.72
59443;BME280;45247;47.466;19.004;2023-05-10T10:43:21;100014.63;;;18.86;51.05
59443;BME280;45247;47.466;19.004;2023-05-10T10:46:11;100003.38;;;18.73;49.95
59443;BME280;45247;47.466;19.004;2023-05-10T10:48:41;100020.81;;;19.06;49.81
59443;BME280;45247;47.466;19.004;2023-05-10T10:51:13;100010.34;;;19.22;49.79
59443;BME280;45247;47.466;19.004;2023-05-10T10:53:41;100023.00;;;19.30;49.16
59443;BME280;45247;47.466;19.004;2023-05-10T10:56:11;100013.34;;;19.00;49.05
59443;BME280;45247;47.466;19.004;2023-05-10T10:58:49;100007.41;;;18.29;49.81
59443;BME280;45247;47.466;19.004;2023-05-10T11:01:20;100006.28;;;18.50;50.96
59443;BME280;45247;47.466;19.004;2023-05-10T11:06:48;99995.47;;;18.42;49.97
59443;BME280;45247;47.466;19.004;2023-05-10T11:09:16;99994.03;;;18.38;50.00
59443;BME280;45247;47.466;19.004;2023-05-10T11:11:52;99990.69;;;18.65;50.05
59443;BME280;45247;47.466;19.004;2023-05-10T11:14:22;99990.97;;;18.91;49.09
59443;BME280;45247;47.466;19.004;2023-05-10T11:16:50;99991.69;;;18.84;49.26
59443;BME280;45247;47.466;19.004;2023-05-10T11:19:19;99979.72;;;18.59;49.10
59443;BME280;45247;47.466;19.004;2023-05-10T11:21:49;99979.97;;;18.17;49.17
59443;BME280;45247;47.466;19.004;2023-05-10T11:24:19;99980.22;;;18.04;49.35
59443;BME280;45247;47.466;19.004;2023-05-10T11:26:49;99980.84;;;18.46;48.88
59443;BME280;45247;47.466;19.004;2023-05-10T11:29:19;99994.19;;;18.66;47.12
59443;BME280;45247;47.466;19.004;2023-05-10T11:31:49;99981.41;;;18.60;49.51
59443;BME280;45247;47.466;19.004;2023-05-10T11:34:25;99969.84;;;18.69;47.57
59443;BME280;45247;47.466;19.004;2023-05-10T11:36:55;99965.25;;;19.37;46.94
59443;BME280;45247;47.466;19.004;2023-05-10T11:39:26;99967.16;;;19.08;46.64
59443;BME280;45247;47.466;19.004;2023-05-10T11:41:54;99963.13;;;19.31;47.31
59443;BME280;45247;47.466;19.004;2023-05-10T11:44:23;99967.03;;;19.46;45.67
59443;BME280;45247;47.466;19.004;2023-05-10T11:46:51;99951.50;;;19.60;46.17
59443;BME280;45247;47.466;19.004;2023-05-10T11:49:20;99958.03;;;19.47;46.34
59443;BME280;45247;47.466;19.004;2023-05-10T11:51:52;99961.81;;;19.08;45.82
59443;BME280;45247;47.466;19.004;2023-05-10T11:54:21;99968.19;;;18.77;46.86
59443;BME280;45247;47.466;19.004;2023-05-10T11:56:49;99956.41;;;19.27;46.26
59443;BME280;45247;47.466;19.004;2023-05-10T11:59:19;99961.41;;;19.49;46.01
59443;BME280;45247;47.466;19.004;2023-05-10T12:01:48;99972.41;;;19.46;45.13
59443;BME280;45247;47.466;19.004;2023-05-10T12:04:16;99969.03;;;19.44;43.98
59443;BME280;45247;47.466;19.004;2023-05-10T12:06:45;99966.41;;;19.25;44.12
59443;BME280;45247;47.466;19.004;2023-05-10T12:09:14;99961.97;;;19.06;45.71
59443;BME280;45247;47.466;19.004;2023-05-10T12:11:55;99965.09;;;18.72;45.91
59443;BME280;45247;47.466;19.004;2023-05-10T12:14:23;99962.28;;;18.93;46.20
59443;BME280;45247;47.466;19.004;2023-05-10T12:16:51;99960.94;;;19.17;47.29
59443;BME280;45247;47.466;19.004;2023-05-10T12:19:20;99967.69;;;19.21;46.70
59443;BME280;45247;47.466;19.004;2023-05-10T12:21:48;99965.88;;;19.12;45.37
59443;BME280;45247;47.466;19.004;2023-05-10T12:24:16;99958.81;;;19.20;45.31
59443;BME280;45247;47.466;19.004;2023-05-10T12:26:45;99946.91;;;19.42;45.30
59443;BME280;45247;47.466;19.004;2023-05-10T12:29:34;99952.31;;;19.33;46.99
59443;BME280;45247;47.466;19.004;2023-05-10T12:32:02;99952.09;;;19.54;47.48
59443;BME280;45247;47.466;19.004;2023-05-10T12:34:31;99947.31;;;19.10;46.75
59443;BME280;45247;47.466;19.004;2023-05-10T12:37:00;99939.72;;;18.96;46.12
59443;BME280;45247;47.466;19.004;2023-05-10T12:39:38;99946.03;;;19.05;46.99
59443;BME280;45247;47.466;19.004;2023-05-10T12:42:07;99939.69;;;19.15;46.68
59443;BME280;45247;47.466;19.004;2023-05-10T12:44:38;99934.25;;;19.35;44.55
59443;BME280;45247;47.466;19.004;2023-05-10T12:47:07;99926.41;;;19.70;45.02
59443;BME280;45247;47.466;19.004;2023-05-10T12:49:38;99924.81;;;19.95;45.99
59443;BME280;45247;47.466;19.004;2023-05-10T12:52:06;99927.41;;;19.60;46.88
59443;BME280;45247;47.466;19.004;2023-05-10T12:54:34;99934.66;;;19.40;46.67
59443;BME280;45247;47.466;19.004;2023-05-10T12:57:03;99936.19;;;19.15;45.37
59443;BME280;45247;47.466;19.004;2023-05-10T12:59:31;99919.38;;;19.32;45.47
59443;BME280;45247;47.466;19.004;2023-05-10T13:02:04;99918.41;;;19.61;45.50